createdAt,value
2018-06-01T00:02:06.139Z,8.13
2018-06-01T00:04:33.600Z,7.23
2018-06-01T00:07:01.088Z,6.43
2018-06-01T00:09:28.594Z,7.53
2018-06-01T00:11:56.074Z,6.27
2018-06-01T00:14:23.545Z,7.57
2018-06-01T00:16:51.027Z,6.83
2018-06-01T00:19:18.543Z,6.80
2018-06-01T00:21:46.090Z,7.33
2018-06-01T00:24:13.550Z,7.03
2018-06-01T00:26:41.030Z,7.73
2018-06-01T00:29:08.498Z,6.90
2018-06-01T00:31:36.026Z,7.03
2018-06-01T00:34:03.482Z,7.93
2018-06-01T00:36:31.051Z,7.63
2018-06-01T00:38:58.615Z,7.80
2018-06-01T00:41:26.103Z,7.70
2018-06-01T00:43:53.566Z,8.67
2018-06-01T00:46:21.083Z,8.77
2018-06-01T00:48:48.575Z,8.00
2018-06-01T00:51:16.038Z,7.50
2018-06-01T00:53:43.564Z,7.90
2018-06-01T00:56:11.121Z,8.10
2018-06-01T00:58:38.675Z,8.30
2018-06-01T01:01:06.143Z,8.20
2018-06-01T01:03:33.694Z,8.63
2018-06-01T01:06:01.166Z,8.30
2018-06-01T01:08:28.650Z,7.63
2018-06-01T01:10:56.155Z,7.93
2018-06-01T01:13:23.709Z,8.67
2018-06-01T01:15:51.206Z,7.70
2018-06-01T01:18:18.699Z,7.77
2018-06-01T01:20:46.164Z,7.60
2018-06-01T01:23:13.678Z,8.67
2018-06-01T01:25:41.219Z,10.83
2018-06-01T01:28:08.778Z,13.33
2018-06-01T01:30:36.338Z,14.00
2018-06-01T01:33:03.877Z,13.30
2018-06-01T01:35:31.363Z,12.13
2018-06-01T01:37:58.858Z,11.90
2018-06-01T01:40:26.346Z,11.73
2018-06-01T01:42:53.934Z,12.17
2018-06-01T01:45:21.562Z,12.27
2018-06-01T01:47:49.062Z,12.17
2018-06-01T01:50:16.540Z,10.67
2018-06-01T01:52:44.074Z,11.43
2018-06-01T01:55:11.544Z,10.63
2018-06-01T01:57:39.095Z,10.57
2018-06-01T02:00:06.582Z,9.93
2018-06-01T02:02:34.112Z,10.10
2018-06-01T02:05:01.603Z,11.17
2018-06-01T02:07:29.070Z,10.87
2018-06-01T02:09:56.581Z,11.93
2018-06-01T02:12:24.079Z,12.53
2018-06-01T02:14:51.566Z,13.23
2018-06-01T02:17:19.034Z,12.63
2018-06-01T02:19:46.614Z,16.53
2018-06-01T02:22:14.087Z,15.00
2018-06-01T02:24:41.634Z,14.83
2018-06-01T02:27:09.098Z,14.83
2018-06-01T02:29:36.643Z,11.83
2018-06-01T02:32:04.220Z,11.33
2018-06-01T02:34:31.782Z,10.77
2018-06-01T02:36:59.334Z,11.70
2018-06-01T02:39:26.831Z,10.17
2018-06-01T02:41:54.351Z,10.87
2018-06-01T02:44:21.859Z,10.63
2018-06-01T02:46:49.342Z,9.80
2018-06-01T02:49:16.831Z,9.77
2018-06-01T02:51:44.389Z,9.17
2018-06-01T02:54:11.900Z,7.20
2018-06-01T02:56:39.394Z,7.00
2018-06-01T02:59:06.887Z,6.67
2018-06-01T03:01:34.561Z,6.87
2018-06-01T03:04:02.082Z,6.93
2018-06-01T03:09:26.611Z,8.27
2018-06-01T03:11:54.158Z,7.40
2018-06-01T03:14:21.686Z,9.13
2018-06-01T03:16:49.174Z,8.33
2018-06-01T03:19:16.651Z,8.73
2018-06-01T03:21:44.162Z,9.40
2018-06-01T03:24:11.642Z,9.63
2018-06-01T03:26:39.223Z,11.00
2018-06-01T03:29:06.748Z,9.70
2018-06-01T03:31:34.301Z,9.40
2018-06-01T03:34:01.775Z,8.07
2018-06-01T03:36:29.270Z,9.23
2018-06-01T03:38:56.743Z,8.43
2018-06-01T03:41:24.231Z,8.57
2018-06-01T03:43:51.713Z,8.27
2018-06-01T03:46:19.198Z,9.13
2018-06-01T03:48:46.726Z,9.23
2018-06-01T03:51:14.206Z,7.80
2018-06-01T03:53:41.850Z,9.00
2018-06-01T03:56:09.410Z,8.57
2018-06-01T03:58:36.874Z,8.57
2018-06-01T04:01:04.434Z,8.63
2018-06-01T04:03:31.994Z,8.50
2018-06-01T04:05:59.498Z,9.40
2018-06-01T04:08:27.007Z,9.30
2018-06-01T04:10:54.530Z,8.30
2018-06-01T04:13:22.011Z,8.13
2018-06-01T04:15:49.565Z,9.43
2018-06-01T04:18:17.042Z,9.50
2018-06-01T04:20:44.528Z,8.70
2018-06-01T04:23:12.014Z,9.40
2018-06-01T04:25:39.515Z,8.80
2018-06-01T04:28:06.994Z,9.67
2018-06-01T04:30:34.460Z,9.43
2018-06-01T04:33:01.955Z,9.80
2018-06-01T04:35:29.442Z,10.30
2018-06-01T04:37:57.006Z,9.50
2018-06-01T04:40:24.664Z,8.80
2018-06-01T04:42:52.162Z,9.30
2018-06-01T04:45:19.621Z,8.37
2018-06-01T04:47:47.111Z,9.73
2018-06-01T04:50:14.611Z,10.00
2018-06-01T04:52:42.113Z,12.13
2018-06-01T04:55:09.619Z,9.40
2018-06-01T04:57:37.126Z,11.03
2018-06-01T05:00:04.665Z,10.83
2018-06-01T05:02:32.159Z,10.47
2018-06-01T05:04:59.660Z,12.23
2018-06-01T05:07:27.221Z,12.27
2018-06-01T05:09:54.787Z,10.17
2018-06-01T05:12:22.285Z,10.27
2018-06-01T05:14:49.770Z,10.13
2018-06-01T05:17:17.351Z,9.50
2018-06-01T05:19:44.830Z,9.67
2018-06-01T05:22:12.354Z,8.77
2018-06-01T05:24:39.810Z,10.13
2018-06-01T05:27:07.383Z,9.17
2018-06-01T05:29:34.953Z,9.10
2018-06-01T05:32:02.443Z,9.77
2018-06-01T05:34:29.911Z,9.40
2018-06-01T05:36:57.472Z,8.00
2018-06-01T05:39:27.026Z,8.53
2018-06-01T05:41:54.687Z,8.37
2018-06-01T05:44:22.358Z,9.03
2018-06-01T05:46:50.941Z,8.67
2018-06-01T05:49:18.531Z,7.80
2018-06-01T05:51:46.000Z,7.67
2018-06-01T05:54:13.535Z,7.37
2018-06-01T05:56:41.000Z,7.57
2018-06-01T05:59:08.488Z,7.00
2018-06-01T06:01:35.963Z,9.53
2018-06-01T06:04:03.458Z,9.07
2018-06-01T06:06:30.927Z,9.13
2018-06-01T06:08:58.483Z,9.00
2018-06-01T06:11:26.014Z,8.27
2018-06-01T06:13:53.579Z,8.90
2018-06-01T06:16:21.151Z,8.67
2018-06-01T06:18:48.655Z,9.10
2018-06-01T06:21:16.122Z,8.97
2018-06-01T06:23:43.612Z,7.80
2018-06-01T06:26:11.215Z,7.50
2018-06-01T06:28:38.736Z,8.00
2018-06-01T06:31:06.204Z,8.50
2018-06-01T06:33:33.690Z,7.23
2018-06-01T06:36:01.151Z,6.17
2018-06-01T06:38:28.634Z,7.23
2018-06-01T06:40:56.117Z,7.00
2018-06-01T06:43:28.005Z,6.70
2018-06-01T06:45:56.847Z,6.90
2018-06-01T06:48:36.133Z,6.80
2018-06-01T06:51:07.683Z,6.23
2018-06-01T06:53:37.187Z,6.87
2018-06-01T06:56:07.598Z,6.23
2018-06-01T06:58:36.497Z,5.53
2018-06-01T07:03:58.238Z,5.87
2018-06-01T07:06:31.316Z,5.33
2018-06-01T07:17:28.274Z,6.50
2018-06-01T07:21:40.843Z,5.50
2018-06-01T07:24:10.747Z,6.67
2018-06-01T07:32:34.968Z,6.43
2018-06-01T07:35:03.553Z,6.53
2018-06-01T07:40:27.340Z,7.17
2018-06-01T07:42:57.050Z,7.07
2018-06-01T07:45:26.320Z,6.93
2018-06-01T07:50:37.845Z,7.27
2018-06-01T07:53:05.920Z,6.60
2018-06-01T07:55:34.682Z,6.50
2018-06-01T08:00:56.131Z,5.83
2018-06-01T08:03:25.741Z,5.83
2018-06-01T08:05:55.494Z,5.55
2018-06-01T08:08:25.362Z,6.12
2018-06-01T08:10:55.283Z,5.77
2018-06-01T08:13:24.914Z,5.60
2018-06-01T08:15:54.901Z,4.53
2018-06-01T08:18:27.144Z,3.70
2018-06-01T08:20:56.719Z,4.17
2018-06-01T08:23:26.547Z,4.12
2018-06-01T08:25:55.903Z,3.10
2018-06-01T08:28:24.363Z,3.22
2018-06-01T08:30:55.025Z,3.73
2018-06-01T08:33:25.215Z,3.58
2018-06-01T08:35:54.820Z,3.47
2018-06-01T08:38:23.130Z,3.05
2018-06-01T08:40:52.191Z,3.90
2018-06-01T08:43:22.300Z,3.70
2018-06-01T08:45:51.947Z,3.95
2018-06-01T08:48:20.790Z,3.70
2018-06-01T08:50:50.069Z,4.10
2018-06-01T08:53:19.689Z,4.40
2018-06-01T08:55:49.867Z,4.57
2018-06-01T08:58:19.833Z,3.90
2018-06-01T09:00:48.511Z,4.07
2018-06-01T09:03:17.203Z,4.35
2018-06-01T09:05:45.887Z,3.70
2018-06-01T09:08:14.570Z,4.40
2018-06-01T09:12:20.627Z,3.85
2018-06-01T09:14:49.289Z,3.45
2018-06-01T09:20:09.828Z,4.03
2018-06-01T09:23:05.064Z,4.85
2018-06-01T09:25:34.562Z,4.10
2018-06-01T09:28:05.513Z,4.53
2018-06-01T09:30:41.922Z,3.87
2018-06-01T09:33:12.570Z,3.50
2018-06-01T09:38:31.990Z,3.85
2018-06-01T09:41:00.535Z,3.60
2018-06-01T09:43:30.239Z,3.20
2018-06-01T09:45:59.846Z,3.08
2018-06-01T09:48:29.040Z,2.60
2018-06-01T09:50:58.343Z,2.65
2018-06-01T09:53:27.949Z,3.20
2018-06-01T09:55:57.253Z,3.47
2018-06-01T10:07:22.907Z,3.20
2018-06-01T10:09:57.636Z,2.78
2018-06-01T10:12:26.722Z,2.47
2018-06-01T10:14:58.373Z,2.75
2018-06-01T10:17:29.319Z,2.87
2018-06-01T10:19:59.156Z,3.22
2018-06-01T10:22:28.839Z,2.50
2018-06-01T10:24:58.033Z,3.05
2018-06-01T10:27:28.868Z,2.95
2018-06-01T10:29:59.793Z,2.72
2018-06-01T10:32:30.020Z,2.55
2018-06-01T10:41:09.283Z,3.00
2018-06-01T10:43:36.866Z,2.80
2018-06-01T10:46:04.326Z,3.15
2018-06-01T10:48:31.810Z,3.22
2018-06-01T10:50:59.282Z,2.80
2018-06-01T10:53:26.820Z,3.22
2018-06-01T10:55:54.370Z,2.70
2018-06-01T10:58:21.862Z,2.20
2018-06-01T11:00:49.416Z,3.25
2018-06-01T11:03:16.946Z,2.15
2018-06-01T11:05:44.525Z,2.50
2018-06-01T11:08:12.018Z,2.78
2018-06-01T11:10:39.480Z,3.10
2018-06-01T11:13:07.071Z,2.20
2018-06-01T11:15:34.560Z,2.58
2018-06-01T11:18:02.030Z,2.28
2018-06-01T11:20:29.542Z,2.72
2018-06-01T11:22:57.007Z,2.33
2018-06-01T11:25:24.607Z,2.30
2018-06-01T11:27:52.131Z,2.42
2018-06-01T11:30:19.683Z,2.20
2018-06-01T11:32:47.169Z,2.80
2018-06-01T11:35:14.733Z,2.40
2018-06-01T11:37:42.200Z,2.85
2018-06-01T11:40:09.698Z,2.75
2018-06-01T11:42:37.217Z,2.53
2018-06-01T11:45:07.692Z,2.70
2018-06-01T11:47:36.067Z,2.33
2018-06-01T11:50:03.691Z,2.17
2018-06-01T11:52:31.760Z,2.53
2018-06-01T11:55:01.788Z,2.53
2018-06-01T11:57:31.340Z,2.33
2018-06-01T11:59:58.928Z,2.60
2018-06-01T12:02:26.423Z,2.10
2018-06-01T12:04:53.910Z,2.33
2018-06-01T12:07:21.371Z,2.50
2018-06-01T12:09:48.967Z,2.28
2018-06-01T12:12:16.498Z,2.20
2018-06-01T12:14:44.058Z,2.25
2018-06-01T12:17:11.528Z,2.15
2018-06-01T12:19:39.022Z,2.42
2018-06-01T12:22:06.499Z,2.25
2018-06-01T12:24:34.032Z,2.28
2018-06-01T12:27:01.547Z,2.17
2018-06-01T12:29:29.164Z,2.17
2018-06-01T12:31:56.775Z,2.20
2018-06-01T12:34:24.234Z,2.40
2018-06-01T12:36:51.714Z,2.30
2018-06-01T12:39:19.173Z,2.40
2018-06-01T12:41:46.682Z,2.45
2018-06-01T12:44:14.147Z,2.70
2018-06-01T12:46:41.629Z,2.20
2018-06-01T12:49:09.182Z,2.28
2018-06-01T12:51:36.743Z,2.50
2018-06-01T12:54:04.257Z,2.85
2018-06-01T12:56:31.757Z,2.50
2018-06-01T12:58:59.324Z,2.35
2018-06-01T13:01:26.819Z,2.17
2018-06-01T13:03:54.339Z,2.50
2018-06-01T13:06:21.919Z,2.22
2018-06-01T13:08:49.397Z,2.78
2018-06-01T13:11:16.914Z,2.22
2018-06-01T13:13:44.412Z,2.33
2018-06-01T13:16:11.899Z,1.87
2018-06-01T13:18:39.390Z,2.10
2018-06-01T13:21:06.994Z,2.78
2018-06-01T13:23:35.583Z,2.45
2018-06-01T13:26:06.219Z,2.12
2018-06-01T13:28:35.207Z,2.15
2018-06-01T13:31:04.197Z,2.17
2018-06-01T13:33:33.807Z,1.67
2018-06-01T13:39:35.278Z,2.25
2018-06-01T13:42:03.760Z,2.00
2018-06-01T13:44:32.947Z,1.87
2018-06-01T13:47:02.247Z,1.60
2018-06-01T13:49:32.546Z,1.73
2018-06-01T13:52:17.142Z,1.40
2018-06-01T13:54:45.965Z,1.90
2018-06-01T13:59:57.414Z,1.70
2018-06-01T14:02:26.811Z,2.00
2018-06-01T14:04:58.776Z,1.70
2018-06-01T14:07:27.356Z,1.60
2018-06-01T14:12:52.786Z,1.58
2018-06-01T14:15:23.095Z,1.60
2018-06-01T14:24:05.642Z,1.37
2018-06-01T14:29:41.614Z,1.98
2018-06-01T14:32:09.556Z,1.25
2018-06-01T14:34:38.037Z,1.85
2018-06-01T14:43:20.595Z,1.80
